sensor_id;sensor_type;location;lat;lon;timestamp;P1;durP1;ratioP1;P2;durP2;ratioP2
75139;SDS011;63714;55.812;37.658;2022-10-16T00:00:35;4.70;;;3.10;;
75139;SDS011;63714;55.812;37.658;2022-10-16T00:03:02;5.18;;;3.20;;
75139;SDS011;63714;55.812;37.658;2022-10-16T00:05:29;6.22;;;3.22;;
75139;SDS011;63714;55.812;37.658;2022-10-16T00:07:54;6.28;;;2.88;;
75139;SDS011;63714;55.812;37.658;2022-10-16T00:10:20;5.35;;;3.20;;
75139;SDS011;63714;55.812;37.658;2022-10-16T00:12:46;9.15;;;3.58;;
75139;SDS011;63714;55.812;37.658;2022-10-16T00:15:11;5.03;;;3.17;;
75139;SDS011;63714;55.812;37.658;2022-10-16T00:17:37;4.63;;;2.83;;
75139;SDS011;63714;55.812;37.658;2022-10-16T00:20:03;8.25;;;3.70;;
75139;SDS011;63714;55.812;37.658;2022-10-16T00:22:48;6.03;;;3.00;;
75139;SDS011;63714;55.812;37.658;2022-10-16T00:25:14;6.00;;;3.20;;
75139;SDS011;63714;55.812;37.658;2022-10-16T00:27:39;6.32;;;2.95;;
75139;SDS011;63714;55.812;37.658;2022-10-16T00:30:05;7.40;;;3.75;;
75139;SDS011;63714;55.812;37.658;2022-10-16T00:32:33;8.43;;;3.30;;
75139;SDS011;63714;55.812;37.658;2022-10-16T00:34:58;6.15;;;3.55;;
75139;SDS011;63714;55.812;37.658;2022-10-16T00:37:24;6.90;;;3.65;;
75139;SDS011;63714;55.812;37.658;2022-10-16T00:39:50;8.52;;;3.30;;
75139;SDS011;63714;55.812;37.658;2022-10-16T00:42:16;6.47;;;3.17;;
75139;SDS011;63714;55.812;37.658;2022-10-16T00:44:44;6.05;;;3.80;;
75139;SDS011;63714;55.812;37.658;2022-10-16T00:47:24;6.70;;;3.20;;
75139;SDS011;63714;55.812;37.658;2022-10-16T00:49:52;7.20;;;3.65;;
75139;SDS011;63714;55.812;37.658;2022-10-16T00:52:21;6.97;;;3.15;;
75139;SDS011;63714;55.812;37.658;2022-10-16T00:54:47;9.20;;;3.38;;
75139;SDS011;63714;55.812;37.658;2022-10-16T00:57:15;8.18;;;3.40;;
75139;SDS011;63714;55.812;37.658;2022-10-16T00:59:40;8.05;;;3.20;;
75139;SDS011;63714;55.812;37.658;2022-10-16T01:02:08;10.23;;;3.95;;
75139;SDS011;63714;55.812;37.658;2022-10-16T01:04:39;6.90;;;3.15;;
75139;SDS011;63714;55.812;37.658;2022-10-16T01:09:55;7.50;;;3.63;;
75139;SDS011;63714;55.812;37.658;2022-10-16T01:20:34;7.50;;;3.72;;
75139;SDS011;63714;55.812;37.658;2022-10-16T01:23:48;9.25;;;3.58;;
75139;SDS011;63714;55.812;37.658;2022-10-16T01:29:26;7.60;;;3.88;;
75139;SDS011;63714;55.812;37.658;2022-10-16T01:32:02;9.13;;;3.67;;
75139;SDS011;63714;55.812;37.658;2022-10-16T01:34:38;5.63;;;3.33;;
75139;SDS011;63714;55.812;37.658;2022-10-16T01:37:13;7.70;;;3.70;;
75139;SDS011;63714;55.812;37.658;2022-10-16T01:39:45;8.00;;;3.97;;
75139;SDS011;63714;55.812;37.658;2022-10-16T01:42:16;8.27;;;3.42;;
75139;SDS011;63714;55.812;37.658;2022-10-16T01:44:48;8.52;;;3.47;;
75139;SDS011;63714;55.812;37.658;2022-10-16T01:47:16;5.85;;;3.67;;
75139;SDS011;63714;55.812;37.658;2022-10-16T01:49:43;6.78;;;3.55;;
75139;SDS011;63714;55.812;37.658;2022-10-16T01:52:12;7.53;;;3.53;;
75139;SDS011;63714;55.812;37.658;2022-10-16T01:54:43;6.85;;;4.00;;
75139;SDS011;63714;55.812;37.658;2022-10-16T01:57:12;4.88;;;3.15;;
75139;SDS011;63714;55.812;37.658;2022-10-16T02:02:12;11.05;;;5.47;;
75139;SDS011;63714;55.812;37.658;2022-10-16T02:04:42;6.53;;;3.72;;
75139;SDS011;63714;55.812;37.658;2022-10-16T02:07:11;7.47;;;3.42;;
75139;SDS011;63714;55.812;37.658;2022-10-16T02:09:37;7.15;;;3.78;;
75139;SDS011;63714;55.812;37.658;2022-10-16T02:12:49;9.00;;;4.30;;
75139;SDS011;63714;55.812;37.658;2022-10-16T02:14:54;8.75;;;4.28;;
75139;SDS011;63714;55.812;37.658;2022-10-16T02:17:20;6.63;;;4.30;;
75139;SDS011;63714;55.812;37.658;2022-10-16T02:19:46;5.63;;;3.42;;
75139;SDS011;63714;55.812;37.658;2022-10-16T02:22:18;7.13;;;3.72;;
75139;SDS011;63714;55.812;37.658;2022-10-16T02:27:46;10.85;;;4.38;;
75139;SDS011;63714;55.812;37.658;2022-10-16T02:30:25;9.85;;;3.60;;
75139;SDS011;63714;55.812;37.658;2022-10-16T02:32:57;7.35;;;3.70;;
75139;SDS011;63714;55.812;37.658;2022-10-16T02:35:26;9.07;;;3.85;;
75139;SDS011;63714;55.812;37.658;2022-10-16T02:37:52;10.52;;;4.00;;
75139;SDS011;63714;55.812;37.658;2022-10-16T02:40:20;10.55;;;4.30;;
75139;SDS011;63714;55.812;37.658;2022-10-16T02:42:49;9.52;;;3.80;;
75139;SDS011;63714;55.812;37.658;2022-10-16T02:45:15;9.43;;;4.22;;
75139;SDS011;63714;55.812;37.658;2022-10-16T02:47:43;11.38;;;4.50;;
75139;SDS011;63714;55.812;37.658;2022-10-16T02:50:09;8.68;;;4.13;;
75139;SDS011;63714;55.812;37.658;2022-10-16T02:52:34;7.82;;;3.85;;
75139;SDS011;63714;55.812;37.658;2022-10-16T02:55:00;8.48;;;4.30;;
75139;SDS011;63714;55.812;37.658;2022-10-16T02:57:26;7.57;;;4.38;;
75139;SDS011;63714;55.812;37.658;2022-10-16T02:59:51;9.77;;;4.10;;
75139;SDS011;63714;55.812;37.658;2022-10-16T03:02:17;10.38;;;3.70;;
75139;SDS011;63714;55.812;37.658;2022-10-16T03:04:43;9.05;;;4.03;;
75139;SDS011;63714;55.812;37.658;2022-10-16T03:07:08;6.75;;;4.05;;
75139;SDS011;63714;55.812;37.658;2022-10-16T03:09:34;7.40;;;3.80;;
75139;SDS011;63714;55.812;37.658;2022-10-16T03:11:59;8.43;;;3.78;;
75139;SDS011;63714;55.812;37.658;2022-10-16T03:14:25;7.18;;;4.40;;
75139;SDS011;63714;55.812;37.658;2022-10-16T03:16:50;8.40;;;4.07;;
75139;SDS011;63714;55.812;37.658;2022-10-16T03:19:17;6.18;;;3.50;;
75139;SDS011;63714;55.812;37.658;2022-10-16T03:21:42;10.25;;;4.28;;
75139;SDS011;63714;55.812;37.658;2022-10-16T03:24:08;12.65;;;4.05;;
75139;SDS011;63714;55.812;37.658;2022-10-16T03:26:34;6.90;;;3.80;;
75139;SDS011;63714;55.812;37.658;2022-10-16T03:28:59;7.45;;;4.28;;
75139;SDS011;63714;55.812;37.658;2022-10-16T03:31:25;6.57;;;3.40;;
75139;SDS011;63714;55.812;37.658;2022-10-16T03:33:51;9.50;;;3.83;;
75139;SDS011;63714;55.812;37.658;2022-10-16T03:36:16;8.13;;;4.25;;
75139;SDS011;63714;55.812;37.658;2022-10-16T03:38:42;6.18;;;3.55;;
75139;SDS011;63714;55.812;37.658;2022-10-16T03:41:07;9.18;;;4.03;;
75139;SDS011;63714;55.812;37.658;2022-10-16T03:43:33;9.07;;;3.58;;
75139;SDS011;63714;55.812;37.658;2022-10-16T03:45:59;5.57;;;3.58;;
75139;SDS011;63714;55.812;37.658;2022-10-16T03:48:24;8.70;;;4.00;;
75139;SDS011;63714;55.812;37.658;2022-10-16T03:50:50;7.65;;;4.05;;
75139;SDS011;63714;55.812;37.658;2022-10-16T03:53:16;7.78;;;3.75;;
75139;SDS011;63714;55.812;37.658;2022-10-16T03:55:42;6.40;;;3.67;;
75139;SDS011;63714;55.812;37.658;2022-10-16T03:58:08;6.88;;;3.50;;
75139;SDS011;63714;55.812;37.658;2022-10-16T04:00:34;8.80;;;3.60;;
75139;SDS011;63714;55.812;37.658;2022-10-16T04:03:00;6.45;;;4.30;;
75139;SDS011;63714;55.812;37.658;2022-10-16T04:05:26;5.60;;;3.25;;
75139;SDS011;63714;55.812;37.658;2022-10-16T04:07:52;7.15;;;3.70;;
75139;SDS011;63714;55.812;37.658;2022-10-16T04:10:17;6.47;;;3.70;;
75139;SDS011;63714;55.812;37.658;2022-10-16T04:12:44;5.82;;;3.15;;
75139;SDS011;63714;55.812;37.658;2022-10-16T04:15:09;6.72;;;3.58;;
75139;SDS011;63714;55.812;37.658;2022-10-16T04:17:35;11.13;;;3.78;;
75139;SDS011;63714;55.812;37.658;2022-10-16T04:20:01;6.90;;;3.72;;
75139;SDS011;63714;55.812;37.658;2022-10-16T04:22:27;7.63;;;2.90;;
75139;SDS011;63714;55.812;37.658;2022-10-16T04:24:53;7.40;;;3.45;;
75139;SDS011;63714;55.812;37.658;2022-10-16T04:27:19;7.22;;;3.35;;
75139;SDS011;63714;55.812;37.658;2022-10-16T04:29:44;7.20;;;3.83;;
75139;SDS011;63714;55.812;37.658;2022-10-16T04:32:10;6.95;;;3.53;;
75139;SDS011;63714;55.812;37.658;2022-10-16T04:34:35;10.50;;;3.78;;
75139;SDS011;63714;55.812;37.658;2022-10-16T04:37:03;8.68;;;4.00;;
75139;SDS011;63714;55.812;37.658;2022-10-16T04:39:28;7.10;;;3.45;;
75139;SDS011;63714;55.812;37.658;2022-10-16T04:41:54;6.15;;;3.13;;
75139;SDS011;63714;55.812;37.658;2022-10-16T04:44:19;9.38;;;3.45;;
75139;SDS011;63714;55.812;37.658;2022-10-16T04:46:45;8.30;;;3.40;;
75139;SDS011;63714;55.812;37.658;2022-10-16T04:49:10;6.38;;;3.38;;
75139;SDS011;63714;55.812;37.658;2022-10-16T04:51:36;14.73;;;4.32;;
75139;SDS011;63714;55.812;37.658;2022-10-16T04:54:01;10.32;;;3.60;;
75139;SDS011;63714;55.812;37.658;2022-10-16T04:56:27;7.35;;;3.40;;
75139;SDS011;63714;55.812;37.658;2022-10-16T04:58:52;10.70;;;3.88;;
75139;SDS011;63714;55.812;37.658;2022-10-16T05:01:18;8.52;;;3.72;;
75139;SDS011;63714;55.812;37.658;2022-10-16T05:03:44;6.95;;;3.90;;
75139;SDS011;63714;55.812;37.658;2022-10-16T05:06:09;11.60;;;4.22;;
75139;SDS011;63714;55.812;37.658;2022-10-16T05:08:35;5.32;;;3.13;;
75139;SDS011;63714;55.812;37.658;2022-10-16T05:11:00;11.13;;;3.65;;
75139;SDS011;63714;55.812;37.658;2022-10-16T05:13:26;7.22;;;3.55;;
75139;SDS011;63714;55.812;37.658;2022-10-16T05:15:52;8.07;;;3.55;;
75139;SDS011;63714;55.812;37.658;2022-10-16T05:18:18;10.23;;;3.50;;
75139;SDS011;63714;55.812;37.658;2022-10-16T05:20:43;12.43;;;3.58;;
75139;SDS011;63714;55.812;37.658;2022-10-16T05:23:09;6.93;;;3.75;;
75139;SDS011;63714;55.812;37.658;2022-10-16T05:25:37;10.10;;;4.38;;
75139;SDS011;63714;55.812;37.658;2022-10-16T05:28:03;12.38;;;4.63;;
75139;SDS011;63714;55.812;37.658;2022-10-16T05:30:29;10.15;;;4.18;;
75139;SDS011;63714;55.812;37.658;2022-10-16T05:32:55;16.48;;;4.13;;
75139;SDS011;63714;55.812;37.658;2022-10-16T05:35:20;12.77;;;4.10;;
75139;SDS011;63714;55.812;37.658;2022-10-16T05:37:46;9.23;;;4.38;;
75139;SDS011;63714;55.812;37.658;2022-10-16T05:40:12;9.10;;;3.92;;
75139;SDS011;63714;55.812;37.658;2022-10-16T05:42:39;8.20;;;4.45;;
75139;SDS011;63714;55.812;37.658;2022-10-16T05:45:06;8.60;;;4.47;;
75139;SDS011;63714;55.812;37.658;2022-10-16T05:47:33;7.90;;;4.45;;
75139;SDS011;63714;55.812;37.658;2022-10-16T05:49:59;10.52;;;4.93;;
75139;SDS011;63714;55.812;37.658;2022-10-16T05:52:24;12.15;;;5.90;;
75139;SDS011;63714;55.812;37.658;2022-10-16T05:54:51;14.93;;;6.47;;
75139;SDS011;63714;55.812;37.658;2022-10-16T05:57:16;10.68;;;4.60;;
75139;SDS011;63714;55.812;37.658;2022-10-16T05:59:42;9.10;;;4.68;;
75139;SDS011;63714;55.812;37.658;2022-10-16T06:02:10;7.95;;;4.68;;
75139;SDS011;63714;55.812;37.658;2022-10-16T06:04:38;8.60;;;3.97;;
75139;SDS011;63714;55.812;37.658;2022-10-16T06:07:03;7.88;;;4.32;;
75139;SDS011;63714;55.812;37.658;2022-10-16T06:09:29;11.55;;;4.38;;
75139;SDS011;63714;55.812;37.658;2022-10-16T06:11:54;8.55;;;3.92;;
75139;SDS011;63714;55.812;37.658;2022-10-16T06:14:20;7.63;;;4.13;;
75139;SDS011;63714;55.812;37.658;2022-10-16T06:16:45;11.15;;;4.60;;
75139;SDS011;63714;55.812;37.658;2022-10-16T06:19:11;9.82;;;4.63;;
75139;SDS011;63714;55.812;37.658;2022-10-16T06:21:36;14.10;;;5.00;;
75139;SDS011;63714;55.812;37.658;2022-10-16T06:24:02;8.40;;;5.00;;
75139;SDS011;63714;55.812;37.658;2022-10-16T06:26:28;12.23;;;5.03;;
75139;SDS011;63714;55.812;37.658;2022-10-16T06:28:56;10.05;;;5.57;;
75139;SDS011;63714;55.812;37.658;2022-10-16T06:31:22;9.57;;;4.80;;
75139;SDS011;63714;55.812;37.658;2022-10-16T06:33:52;9.88;;;5.03;;
75139;SDS011;63714;55.812;37.658;2022-10-16T06:36:18;9.63;;;5.10;;
75139;SDS011;63714;55.812;37.658;2022-10-16T06:38:45;10.10;;;4.82;;
75139;SDS011;63714;55.812;37.658;2022-10-16T06:41:11;9.07;;;5.25;;
75139;SDS011;63714;55.812;37.658;2022-10-16T06:43:39;13.32;;;5.22;;
75139;SDS011;63714;55.812;37.658;2022-10-16T06:46:05;11.50;;;4.93;;
75139;SDS011;63714;55.812;37.658;2022-10-16T06:48:35;13.32;;;5.30;;
75139;SDS011;63714;55.812;37.658;2022-10-16T06:51:05;8.38;;;4.95;;
75139;SDS011;63714;55.812;37.658;2022-10-16T06:53:42;9.23;;;5.57;;
75139;SDS011;63714;55.812;37.658;2022-10-16T06:56:11;13.65;;;5.63;;
75139;SDS011;63714;55.812;37.658;2022-10-16T06:58:44;9.30;;;5.53;;
75139;SDS011;63714;55.812;37.658;2022-10-16T07:01:10;12.75;;;6.40;;
75139;SDS011;63714;55.812;37.658;2022-10-16T07:03:37;10.02;;;5.22;;
75139;SDS011;63714;55.812;37.658;2022-10-16T07:06:04;9.95;;;5.53;;
75139;SDS011;63714;55.812;37.658;2022-10-16T07:08:32;10.80;;;5.65;;
75139;SDS011;63714;55.812;37.658;2022-10-16T07:11:02;11.30;;;5.35;;
75139;SDS011;63714;55.812;37.658;2022-10-16T07:13:29;11.15;;;6.43;;
75139;SDS011;63714;55.812;37.658;2022-10-16T07:15:55;11.18;;;5.88;;
75139;SDS011;63714;55.812;37.658;2022-10-16T07:18:21;9.13;;;5.00;;
75139;SDS011;63714;55.812;37.658;2022-10-16T07:20:51;7.80;;;4.88;;
75139;SDS011;63714;55.812;37.658;2022-10-16T07:23:16;6.25;;;4.13;;
75139;SDS011;63714;55.812;37.658;2022-10-16T07:25:42;9.35;;;4.35;;
75139;SDS011;63714;55.812;37.658;2022-10-16T07:28:08;10.15;;;4.10;;
75139;SDS011;63714;55.812;37.658;2022-10-16T07:30:34;10.60;;;4.35;;
75139;SDS011;63714;55.812;37.658;2022-10-16T07:35:27;9.30;;;4.20;;
75139;SDS011;63714;55.812;37.658;2022-10-16T07:37:53;13.43;;;4.55;;
75139;SDS011;63714;55.812;37.658;2022-10-16T07:40:18;8.10;;;3.95;;
75139;SDS011;63714;55.812;37.658;2022-10-16T07:42:44;13.57;;;4.57;;
75139;SDS011;63714;55.812;37.658;2022-10-16T07:45:09;7.88;;;4.50;;
75139;SDS011;63714;55.812;37.658;2022-10-16T07:47:35;15.93;;;5.35;;
75139;SDS011;63714;55.812;37.658;2022-10-16T07:50:00;11.82;;;4.88;;
75139;SDS011;63714;55.812;37.658;2022-10-16T07:52:26;10.23;;;4.57;;
75139;SDS011;63714;55.812;37.658;2022-10-16T07:54:51;7.38;;;3.83;;
75139;SDS011;63714;55.812;37.658;2022-10-16T07:57:17;6.60;;;3.58;;
75139;SDS011;63714;55.812;37.658;2022-10-16T07:59:45;8.85;;;4.30;;
75139;SDS011;63714;55.812;37.658;2022-10-16T08:02:11;8.55;;;3.90;;
75139;SDS011;63714;55.812;37.658;2022-10-16T08:04:37;9.75;;;4.00;;
75139;SDS011;63714;55.812;37.658;2022-10-16T08:07:02;9.07;;;3.28;;
75139;SDS011;63714;55.812;37.658;2022-10-16T08:09:28;7.60;;;3.50;;
75139;SDS011;63714;55.812;37.658;2022-10-16T08:11:53;5.07;;;3.30;;
75139;SDS011;63714;55.812;37.658;2022-10-16T08:14:19;9.85;;;3.88;;
75139;SDS011;63714;55.812;37.658;2022-10-16T08:16:44;6.35;;;3.72;;
75139;SDS011;63714;55.812;37.658;2022-10-16T08:19:10;9.93;;;3.75;;
75139;SDS011;63714;55.812;37.658;2022-10-16T08:21:36;7.38;;;3.95;;
75139;SDS011;63714;55.812;37.658;2022-10-16T08:24:01;9.70;;;3.60;;
75139;SDS011;63714;55.812;37.658;2022-10-16T08:26:27;8.40;;;3.85;;
75139;SDS011;63714;55.812;37.658;2022-10-16T08:28:52;8.43;;;3.80;;
75139;SDS011;63714;55.812;37.658;2022-10-16T08:31:19;8.65;;;4.30;;
75139;SDS011;63714;55.812;37.658;2022-10-16T08:33:45;13.10;;;3.78;;
75139;SDS011;63714;55.812;37.658;2022-10-16T08:39:52;8.32;;;4.25;;
75139;SDS011;63714;55.812;37.658;2022-10-16T08:42:37;4.72;;;3.15;;
75139;SDS011;63714;55.812;37.658;2022-10-16T08:45:30;6.53;;;3.55;;
75139;SDS011;63714;55.812;37.658;2022-10-16T08:48:11;7.75;;;3.90;;
75139;SDS011;63714;55.812;37.658;2022-10-16T08:50:45;9.75;;;3.50;;
75139;SDS011;63714;55.812;37.658;2022-10-16T08:53:18;8.50;;;3.83;;
75139;SDS011;63714;55.812;37.658;2022-10-16T08:55:51;7.53;;;3.28;;
75139;SDS011;63714;55.812;37.658;2022-10-16T08:58:19;5.75;;;3.50;;
75139;SDS011;63714;55.812;37.658;2022-10-16T09:00:47;7.53;;;4.22;;
75139;SDS011;63714;55.812;37.658;2022-10-16T09:03:27;6.63;;;3.83;;
75139;SDS011;63714;55.812;37.658;2022-10-16T09:09:03;6.68;;;3.03;;
75139;SDS011;63714;55.812;37.658;2022-10-16T09:11:59;5.00;;;3.30;;
75139;SDS011;63714;55.812;37.658;2022-10-16T09:20:27;8.43;;;3.03;;
75139;SDS011;63714;55.812;37.658;2022-10-16T09:25:29;6.15;;;2.90;;
75139;SDS011;63714;55.812;37.658;2022-10-16T09:27:56;7.20;;;3.00;;
75139;SDS011;63714;55.812;37.658;2022-10-16T09:30:22;8.10;;;3.00;;
75139;SDS011;63714;55.812;37.658;2022-10-16T09:32:52;5.78;;;3.05;;
75139;SDS011;63714;55.812;37.658;2022-10-16T09:38:05;5.25;;;3.05;;
75139;SDS011;63714;55.812;37.658;2022-10-16T09:43:12;5.88;;;3.38;;
75139;SDS011;63714;55.812;37.658;2022-10-16T09:49:25;9.32;;;3.88;;
75139;SDS011;63714;55.812;37.658;2022-10-16T09:52:02;6.75;;;3.85;;
75139;SDS011;63714;55.812;37.658;2022-10-16T09:54:36;12.13;;;5.18;;
75139;SDS011;63714;55.812;37.658;2022-10-16T09:57:10;7.03;;;4.25;;
75139;SDS011;63714;55.812;37.658;2022-10-16T09:59:45;7.88;;;4.20;;
75139;SDS011;63714;55.812;37.658;2022-10-16T10:02:13;10.43;;;4.30;;
75139;SDS011;63714;55.812;37.658;2022-10-16T10:04:41;8.02;;;3.80;;
75139;SDS011;63714;55.812;37.658;2022-10-16T10:07:17;10.43;;;3.33;;
75139;SDS011;63714;55.812;37.658;2022-10-16T10:09:46;11.98;;;3.65;;
75139;SDS011;63714;55.812;37.658;2022-10-16T10:12:19;4.05;;;2.35;;
75139;SDS011;63714;55.812;37.658;2022-10-16T10:14:55;9.10;;;2.75;;
75139;SDS011;63714;55.812;37.658;2022-10-16T10:17:23;7.43;;;3.00;;
75139;SDS011;63714;55.812;37.658;2022-10-16T10:30:23;10.35;;;3.22;;
75139;SDS011;63714;55.812;37.658;2022-10-16T10:38:38;5.35;;;2.80;;
75139;SDS011;63714;55.812;37.658;2022-10-16T10:41:45;7.15;;;2.70;;
75139;SDS011;63714;55.812;37.658;2022-10-16T10:44:41;6.55;;;3.15;;
75139;SDS011;63714;55.812;37.658;2022-10-16T11:01:26;8.43;;;2.88;;
75139;SDS011;63714;55.812;37.658;2022-10-16T11:09:40;5.82;;;2.20;;
75139;SDS011;63714;55.812;37.658;2022-10-16T11:12:17;3.67;;;2.30;;
75139;SDS011;63714;55.812;37.658;2022-10-16T11:14:53;6.43;;;2.30;;
75139;SDS011;63714;55.812;37.658;2022-10-16T11:20:02;7.20;;;3.33;;
75139;SDS011;63714;55.812;37.658;2022-10-16T11:22:39;5.88;;;3.00;;
75139;SDS011;63714;55.812;37.658;2022-10-16T11:25:16;7.25;;;2.55;;
75139;SDS011;63714;55.812;37.658;2022-10-16T11:30:28;7.15;;;2.90;;
75139;SDS011;63714;55.812;37.658;2022-10-16T11:38:34;5.45;;;2.15;;
75139;SDS011;63714;55.812;37.658;2022-10-16T11:43:54;5.60;;;2.60;;
75139;SDS011;63714;55.812;37.658;2022-10-16T11:46:27;5.35;;;2.30;;
75139;SDS011;63714;55.812;37.658;2022-10-16T11:48:57;9.57;;;2.70;;
75139;SDS011;63714;55.812;37.658;2022-10-16T11:54:02;6.03;;;2.30;;
75139;SDS011;63714;55.812;37.658;2022-10-16T11:56:40;3.92;;;2.00;;
75139;SDS011;63714;55.812;37.658;2022-10-16T11:59:21;6.85;;;2.90;;
75139;SDS011;63714;55.812;37.658;2022-10-16T12:02:23;7.30;;;3.35;;
75139;SDS011;63714;55.812;37.658;2022-10-16T12:08:06;6.03;;;2.38;;
75139;SDS011;63714;55.812;37.658;2022-10-16T12:10:38;5.70;;;2.35;;
75139;SDS011;63714;55.812;37.658;2022-10-16T12:13:26;8.98;;;2.25;;
75139;SDS011;63714;55.812;37.658;2022-10-16T12:18:49;8.73;;;3.10;;
75139;SDS011;63714;55.812;37.658;2022-10-16T12:21:34;7.97;;;3.67;;
75139;SDS011;63714;55.812;37.658;2022-10-16T12:24:00;5.70;;;2.97;;
75139;SDS011;63714;55.812;37.658;2022-10-16T12:26:31;5.78;;;3.00;;
75139;SDS011;63714;55.812;37.658;2022-10-16T12:29:32;3.95;;;2.30;;
75139;SDS011;63714;55.812;37.658;2022-10-16T12:31:50;6.80;;;2.85;;
75139;SDS011;63714;55.812;37.658;2022-10-16T12:34:22;7.97;;;3.53;;
75139;SDS011;63714;55.812;37.658;2022-10-16T12:36:52;8.98;;;3.42;;
75139;SDS011;63714;55.812;37.658;2022-10-16T12:39:22;10.68;;;3.80;;
75139;SDS011;63714;55.812;37.658;2022-10-16T12:42:03;12.00;;;3.45;;
75139;SDS011;63714;55.812;37.658;2022-10-16T12:44:33;8.65;;;3.78;;
75139;SDS011;63714;55.812;37.658;2022-10-16T12:47:00;9.35;;;3.92;;
75139;SDS011;63714;55.812;37.658;2022-10-16T12:52:02;8.93;;;4.05;;
75139;SDS011;63714;55.812;37.658;2022-10-16T12:54:31;9.45;;;4.43;;
75139;SDS011;63714;55.812;37.658;2022-10-16T13:00:04;5.40;;;2.92;;
75139;SDS011;63714;55.812;37.658;2022-10-16T13:05:26;6.70;;;2.85;;
75139;SDS011;63714;55.812;37.658;2022-10-16T13:13:32;8.75;;;3.75;;
75139;SDS011;63714;55.812;37.658;2022-10-16T13:16:42;5.63;;;3.05;;
75139;SDS011;63714;55.812;37.658;2022-10-16T13:19:38;6.38;;;2.58;;
75139;SDS011;63714;55.812;37.658;2022-10-16T13:22:24;4.25;;;2.40;;
75139;SDS011;63714;55.812;37.658;2022-10-16T13:28:04;5.15;;;2.72;;
75139;SDS011;63714;55.812;37.658;2022-10-16T13:30:40;3.85;;;2.58;;
75139;SDS011;63714;55.812;37.658;2022-10-16T13:35:46;6.93;;;2.40;;
75139;SDS011;63714;55.812;37.658;2022-10-16T13:38:15;7.28;;;2.65;;
75139;SDS011;63714;55.812;37.658;2022-10-16T13:43:18;10.68;;;3.03;;
75139;SDS011;63714;55.812;37.658;2022-10-16T13:46:00;7.38;;;3.13;;
75139;SDS011;63714;55.812;37.658;2022-10-16T13:48:32;6.30;;;3.28;;
75139;SDS011;63714;55.812;37.658;2022-10-16T13:51:03;9.63;;;3.90;;
75139;SDS011;63714;55.812;37.658;2022-10-16T13:53:38;6.85;;;3.58;;
75139;SDS011;63714;55.812;37.658;2022-10-16T13:56:05;8.15;;;3.88;;
75139;SDS011;63714;55.812;37.658;2022-10-16T13:58:33;7.25;;;3.55;;
75139;SDS011;63714;55.812;37.658;2022-10-16T14:01:03;7.88;;;3.30;;
75139;SDS011;63714;55.812;37.658;2022-10-16T14:03:30;8.73;;;3.67;;
75139;SDS011;63714;55.812;37.658;2022-10-16T14:06:02;6.40;;;3.47;;
75139;SDS011;63714;55.812;37.658;2022-10-16T14:08:31;11.02;;;3.85;;
75139;SDS011;63714;55.812;37.658;2022-10-16T14:11:01;7.22;;;3.95;;
75139;SDS011;63714;55.812;37.658;2022-10-16T14:13:31;7.57;;;3.85;;
75139;SDS011;63714;55.812;37.658;2022-10-16T14:16:05;10.13;;;4.40;;
75139;SDS011;63714;55.812;37.658;2022-10-16T14:18:34;9.93;;;3.83;;
75139;SDS011;63714;55.812;37.658;2022-10-16T14:21:04;9.88;;;4.57;;
75139;SDS011;63714;55.812;37.658;2022-10-16T14:23:39;11.15;;;4.63;;
75139;SDS011;63714;55.812;37.658;2022-10-16T14:28:35;12.15;;;5.78;;
75139;SDS011;63714;55.812;37.658;2022-10-16T14:31:02;11.35;;;5.20;;
75139;SDS011;63714;55.812;37.658;2022-10-16T14:33:42;9.82;;;5.57;;
75139;SDS011;63714;55.812;37.658;2022-10-16T14:36:14;18.38;;;6.53;;
75139;SDS011;63714;55.812;37.658;2022-10-16T14:38:50;10.95;;;5.70;;
75139;SDS011;63714;55.812;37.658;2022-10-16T14:41:22;12.45;;;5.43;;
75139;SDS011;63714;55.812;37.658;2022-10-16T14:44:00;14.07;;;7.50;;
75139;SDS011;63714;55.812;37.658;2022-10-16T14:46:35;12.23;;;5.63;;
75139;SDS011;63714;55.812;37.658;2022-10-16T14:51:33;9.75;;;4.90;;
75139;SDS011;63714;55.812;37.658;2022-10-16T14:53:59;8.85;;;4.07;;
75139;SDS011;63714;55.812;37.658;2022-10-16T14:56:30;8.80;;;3.85;;
75139;SDS011;63714;55.812;37.658;2022-10-16T14:59:07;10.48;;;3.53;;
75139;SDS011;63714;55.812;37.658;2022-10-16T15:01:42;8.55;;;4.00;;
75139;SDS011;63714;55.812;37.658;2022-10-16T15:04:09;8.13;;;3.70;;
75139;SDS011;63714;55.812;37.658;2022-10-16T15:06:37;8.82;;;3.33;;
75139;SDS011;63714;55.812;37.658;2022-10-16T15:09:03;6.78;;;3.45;;
75139;SDS011;63714;55.812;37.658;2022-10-16T15:11:29;8.68;;;3.90;;
75139;SDS011;63714;55.812;37.658;2022-10-16T15:13:57;9.85;;;4.50;;
75139;SDS011;63714;55.812;37.658;2022-10-16T15:16:23;15.63;;;6.07;;
75139;SDS011;63714;55.812;37.658;2022-10-16T15:18:49;10.85;;;4.93;;
75139;SDS011;63714;55.812;37.658;2022-10-16T15:21:22;11.02;;;4.88;;
75139;SDS011;63714;55.812;37.658;2022-10-16T15:23:51;11.88;;;4.38;;
75139;SDS011;63714;55.812;37.658;2022-10-16T15:26:17;13.98;;;6.70;;
75139;SDS011;63714;55.812;37.658;2022-10-16T15:28:42;15.65;;;6.70;;
75139;SDS011;63714;55.812;37.658;2022-10-16T15:31:08;14.82;;;6.50;;
75139;SDS011;63714;55.812;37.658;2022-10-16T15:33:33;18.50;;;7.78;;
75139;SDS011;63714;55.812;37.658;2022-10-16T15:36:00;18.08;;;8.57;;
75139;SDS011;63714;55.812;37.658;2022-10-16T15:38:27;19.55;;;8.50;;
75139;SDS011;63714;55.812;37.658;2022-10-16T15:40:53;17.13;;;7.60;;
75139;SDS011;63714;55.812;37.658;2022-10-16T15:43:19;15.00;;;6.70;;
75139;SDS011;63714;55.812;37.658;2022-10-16T15:48:31;13.43;;;6.38;;
75139;SDS011;63714;55.812;37.658;2022-10-16T15:50:58;15.02;;;7.30;;
75139;SDS011;63714;55.812;37.658;2022-10-16T15:53:25;16.73;;;6.50;;
75139;SDS011;63714;55.812;37.658;2022-10-16T15:55:51;17.27;;;6.68;;
75139;SDS011;63714;55.812;37.658;2022-10-16T15:58:17;11.98;;;5.53;;
75139;SDS011;63714;55.812;37.658;2022-10-16T16:00:42;12.05;;;5.32;;
75139;SDS011;63714;55.812;37.658;2022-10-16T16:03:08;11.05;;;4.20;;
75139;SDS011;63714;55.812;37.658;2022-10-16T16:05:40;8.82;;;4.10;;
75139;SDS011;63714;55.812;37.658;2022-10-16T16:08:06;14.23;;;4.68;;
75139;SDS011;63714;55.812;37.658;2022-10-16T16:10:31;11.25;;;5.00;;
75139;SDS011;63714;55.812;37.658;2022-10-16T16:12:57;15.23;;;6.43;;
75139;SDS011;63714;55.812;37.658;2022-10-16T16:15:24;8.98;;;4.20;;
75139;SDS011;63714;55.812;37.658;2022-10-16T16:17:49;11.55;;;4.38;;
75139;SDS011;63714;55.812;37.658;2022-10-16T16:20:15;9.43;;;4.53;;
75139;SDS011;63714;55.812;37.658;2022-10-16T16:22:41;9.50;;;4.35;;
75139;SDS011;63714;55.812;37.658;2022-10-16T16:25:07;9.30;;;4.80;;
75139;SDS011;63714;55.812;37.658;2022-10-16T16:27:32;10.65;;;5.60;;
75139;SDS011;63714;55.812;37.658;2022-10-16T16:30:00;7.65;;;4.57;;
75139;SDS011;63714;55.812;37.658;2022-10-16T16:32:28;10.60;;;4.55;;
75139;SDS011;63714;55.812;37.658;2022-10-16T16:34:54;11.73;;;5.32;;
75139;SDS011;63714;55.812;37.658;2022-10-16T16:37:20;14.45;;;5.65;;
75139;SDS011;63714;55.812;37.658;2022-10-16T16:39:46;9.05;;;3.90;;
75139;SDS011;63714;55.812;37.658;2022-10-16T16:42:11;8.77;;;4.45;;
75139;SDS011;63714;55.812;37.658;2022-10-16T16:44:37;12.20;;;5.07;;
75139;SDS011;63714;55.812;37.658;2022-10-16T16:47:03;9.48;;;4.38;;
75139;SDS011;63714;55.812;37.658;2022-10-16T16:49:29;12.43;;;4.07;;
75139;SDS011;63714;55.812;37.658;2022-10-16T16:51:55;9.00;;;3.85;;
75139;SDS011;63714;55.812;37.658;2022-10-16T16:54:20;8.63;;;4.10;;
75139;SDS011;63714;55.812;37.658;2022-10-16T16:56:46;9.80;;;4.00;;